Time;durP1;ratioP1;P1;durP2;ratioP2;P2;SDS_P1;SDS_P2;PMS_P1;PMS_P2;Temp;Humidity;BMP_temperature;BMP_pressure;BME280_temperature;BME280_humidity;BME280_pressure;Samples;Min_cycle;Max_cycle;Signal;HPM_P1;HPM_P2
2023/12/02 00:01:13;;;;;;;8.70;7.80;;;8.80;99.90;;;;;;5074220;28;20017;-81
2023/12/02 00:03:39;;;;;;;7.70;7.00;;;8.70;99.90;;;;;;5074264;28;20496;-81
2023/12/02 00:06:05;;;;;;;7.63;6.82;;;8.80;99.90;;;;;;5074216;28;20081;-80
2023/12/02 00:08:30;;;;;;;7.35;6.65;;;8.80;99.90;;;;;;5073927;28;20071;-80
2023/12/02 00:10:56;;;;;;;6.88;6.28;;;8.80;99.90;;;;;;5073936;28;20020;-81
2023/12/02 00:13:22;;;;;;;6.40;5.80;;;8.80;99.90;;;;;;5072580;28;20112;-82
2023/12/02 00:15:47;;;;;;;8.45;6.22;;;8.80;99.90;;;;;;5074392;28;20031;-81
2023/12/02 00:18:13;;;;;;;6.15;5.65;;;8.70;99.90;;;;;;5072418;28;20090;-81
2023/12/02 00:20:39;;;;;;;6.88;6.18;;;8.50;99.90;;;;;;5074023;28;20024;-81
2023/12/02 00:23:04;;;;;;;6.60;6.00;;;8.30;99.90;;;;;;5073682;28;20033;-81
2023/12/02 00:25:30;;;;;;;6.45;5.82;;;8.20;99.90;;;;;;5074416;28;20027;-81
2023/12/02 00:27:55;;;;;;;6.03;5.43;;;8.10;99.90;;;;;;5074062;28;20082;-81
2023/12/02 00:30:21;;;;;;;6.38;5.70;;;8.10;99.90;;;;;;5073404;28;20112;-81
2023/12/02 00:32:47;;;;;;;6.38;5.78;;;8.00;99.90;;;;;;5073812;28;20033;-82
2023/12/02 00:35:13;;;;;;;6.97;5.38;;;7.90;99.90;;;;;;5074224;28;20025;-82
2023/12/02 00:37:38;;;;;;;7.28;5.65;;;8.00;99.90;;;;;;5073081;28;20457;-81
2023/12/02 00:40:05;;;;;;;6.10;5.60;;;7.90;99.90;;;;;;5073309;28;20471;-81
2023/12/02 00:42:31;;;;;;;6.78;6.07;;;7.90;99.90;;;;;;5073424;28;20029;-81
2023/12/02 00:44:56;;;;;;;8.60;6.25;;;7.80;99.90;;;;;;5073482;28;20024;-82
2023/12/02 00:47:22;;;;;;;6.93;5.70;;;7.70;99.90;;;;;;5073137;28;20056;-81
2023/12/02 00:49:48;;;;;;;6.53;5.80;;;7.70;99.90;;;;;;5073253;28;20025;-80
2023/12/02 00:52:14;;;;;;;8.40;6.10;;;7.70;99.90;;;;;;5073488;28;20048;-81
2023/12/02 00:54:40;;;;;;;7.53;6.82;;;7.70;99.90;;;;;;5073040;28;20024;-79
2023/12/02 00:57:05;;;;;;;7.68;6.43;;;7.70;99.90;;;;;;5073115;28;20074;-79
2023/12/02 00:59:31;;;;;;;8.50;6.70;;;7.60;99.90;;;;;;5073974;28;20032;-79
2023/12/02 01:01:57;;;;;;;7.60;6.90;;;7.50;99.90;;;;;;5072892;28;20112;-80
2023/12/02 01:04:22;;;;;;;8.35;7.45;;;7.50;99.90;;;;;;5073328;28;20029;-80
2023/12/02 01:06:48;;;;;;;8.02;7.25;;;7.50;99.90;;;;;;5072942;28;20099;-80
2023/12/02 01:09:13;;;;;;;8.05;7.35;;;7.50;99.90;;;;;;5072752;28;20055;-79
2023/12/02 01:11:39;;;;;;;8.02;7.22;;;7.50;99.90;;;;;;5072854;28;20024;-80
2023/12/02 01:14:05;;;;;;;8.88;7.97;;;7.50;99.90;;;;;;5072505;28;20488;-80
2023/12/02 01:16:30;;;;;;;8.63;7.82;;;7.50;99.90;;;;;;5072875;28;20027;-80
2023/12/02 01:18:56;;;;;;;9.35;8.48;;;7.50;99.90;;;;;;5072714;28;20551;-80
2023/12/02 01:21:22;;;;;;;9.13;8.27;;;7.50;99.90;;;;;;5072858;28;20020;-81
2023/12/02 01:23:47;;;;;;;8.90;8.10;;;7.40;99.90;;;;;;5071437;28;20036;-81
2023/12/02 01:26:13;;;;;;;9.07;8.18;;;7.40;99.90;;;;;;5073171;28;20017;-81
2023/12/02 01:28:38;;;;;;;9.25;8.35;;;7.40;99.90;;;;;;5073283;28;20526;-81
2023/12/02 01:31:04;;;;;;;9.35;8.50;;;7.40;99.90;;;;;;5072609;28;20104;-81
2023/12/02 01:33:30;;;;;;;10.23;8.73;;;7.40;99.90;;;;;;5073143;28;20052;-82
2023/12/02 01:35:55;;;;;;;9.85;8.93;;;7.50;99.90;;;;;;5072135;28;20054;-81
2023/12/02 01:38:22;;;;;;;9.07;8.27;;;7.50;99.90;;;;;;5072134;28;20040;-81
2023/12/02 01:40:48;;;;;;;9.50;8.50;;;7.50;99.90;;;;;;5071414;28;20020;-82
2023/12/02 01:43:31;;;;;;;12.05;9.68;;;7.60;99.90;;;;;;5071789;28;20089;-81
2023/12/02 01:45:57;;;;;;;13.40;10.05;;;7.50;99.90;;;;;;5072494;28;20024;-81
2023/12/02 01:48:26;;;;;;;13.35;10.75;;;7.60;99.90;;;;;;5071665;28;20044;-81
2023/12/02 01:50:52;;;;;;;13.55;11.23;;;7.90;99.90;;;;;;5072292;28;20028;-80
2023/12/02 01:53:18;;;;;;;13.48;11.18;;;8.10;99.90;;;;;;5071620;28;20047;-79
2023/12/02 01:55:44;;;;;;;12.27;10.98;;;8.20;99.90;;;;;;5071708;28;20016;-79
2023/12/02 01:58:10;;;;;;;13.40;11.68;;;8.20;99.90;;;;;;5071919;28;20043;-80
2023/12/02 02:00:35;;;;;;;12.93;11.52;;;8.20;99.90;;;;;;5072293;28;20494;-79
2023/12/02 02:03:01;;;;;;;12.02;11.00;;;8.10;99.90;;;;;;5072166;28;20033;-80
2023/12/02 02:05:27;;;;;;;12.98;11.75;;;8.30;99.90;;;;;;5072617;28;20024;-80
2023/12/02 02:07:53;;;;;;;13.23;12.02;;;8.40;99.90;;;;;;5072253;28;20021;-78
2023/12/02 02:10:22;;;;;;;13.50;12.27;;;8.30;99.90;;;;;;5071661;28;20107;-79
2023/12/02 02:12:47;;;;;;;13.55;12.07;;;8.30;99.90;;;;;;5071414;28;20020;-80
2023/12/02 02:15:14;;;;;;;12.52;11.30;;;8.40;99.90;;;;;;5071707;28;20067;-80
2023/12/02 02:17:40;;;;;;;13.85;11.73;;;8.30;99.90;;;;;;5072241;28;20410;-79
2023/12/02 02:20:06;;;;;;;13.15;11.40;;;8.10;99.90;;;;;;5071620;28;20104;-80
2023/12/02 02:22:32;;;;;;;14.93;12.18;;;7.90;99.90;;;;;;5071390;28;20025;-80
2023/12/02 02:24:57;;;;;;;13.02;11.63;;;7.70;99.90;;;;;;5071854;28;20104;-80
2023/12/02 02:27:23;;;;;;;13.80;12.10;;;7.60;99.90;;;;;;5071093;28;20444;-81
2023/12/02 02:29:49;;;;;;;12.10;11.00;;;7.50;99.90;;;;;;5072582;28;20482;-80
2023/12/02 02:32:14;;;;;;;14.63;12.20;;;7.50;99.90;;;;;;5072027;28;20514;-81
2023/12/02 02:34:41;;;;;;;13.65;11.63;;;7.40;99.90;;;;;;5072250;28;20035;-79
2023/12/02 02:37:07;;;;;;;13.02;11.63;;;7.40;99.90;;;;;;5072494;28;20116;-78
2023/12/02 02:39:33;;;;;;;14.73;12.35;;;7.30;99.90;;;;;;5071229;28;20498;-80
2023/12/02 02:42:05;;;;;;;14.40;13.02;;;7.30;99.90;;;;;;5071488;28;20035;-80
2023/12/02 02:44:34;;;;;;;14.25;12.75;;;7.30;99.90;;;;;;5071193;28;20036;-80
2023/12/02 02:47:00;;;;;;;14.68;12.68;;;7.20;99.90;;;;;;5071518;28;20107;-80
2023/12/02 02:49:25;;;;;;;15.15;13.57;;;7.20;99.90;;;;;;5071040;28;20159;-80
2023/12/02 02:51:51;;;;;;;16.20;14.15;;;7.20;99.90;;;;;;5072608;28;20056;-80
2023/12/02 02:54:17;;;;;;;15.73;14.13;;;7.20;99.90;;;;;;5075705;28;20028;-80
2023/12/02 02:56:43;;;;;;;18.20;15.43;;;7.20;99.90;;;;;;5075094;28;20024;-79
2023/12/02 02:59:09;;;;;;;16.08;14.38;;;7.10;99.90;;;;;;5075444;28;20024;-81
2023/12/02 03:01:36;;;;;;;16.25;14.57;;;7.10;99.90;;;;;;5075703;28;20174;-81
2023/12/02 03:04:03;;;;;;;15.35;13.80;;;7.10;99.90;;;;;;5075666;28;20130;-80
2023/12/02 03:06:29;;;;;;;15.82;14.15;;;7.10;99.90;;;;;;5075901;28;20032;-80
2023/12/02 03:08:54;;;;;;;16.02;14.15;;;7.10;99.90;;;;;;5075789;28;20566;-81
2023/12/02 03:11:20;;;;;;;15.52;13.93;;;7.00;99.90;;;;;;5075278;28;20445;-80
2023/12/02 03:13:45;;;;;;;16.65;14.85;;;7.00;99.90;;;;;;5075048;28;20487;-81
2023/12/02 03:16:11;;;;;;;15.98;14.23;;;6.90;99.90;;;;;;5075146;28;20486;-80
2023/12/02 03:18:37;;;;;;;16.75;14.25;;;6.90;99.90;;;;;;5074908;28;20419;-79
2023/12/02 03:21:02;;;;;;;17.27;15.07;;;6.80;99.90;;;;;;5074638;28;20032;-80
2023/12/02 03:23:28;;;;;;;16.73;15.02;;;6.90;99.90;;;;;;5075044;28;20035;-80
2023/12/02 03:25:54;;;;;;;16.17;14.55;;;6.90;99.90;;;;;;5075126;28;20024;-80
2023/12/02 03:28:21;;;;;;;16.90;15.20;;;6.90;99.90;;;;;;5074393;28;20025;-80
2023/12/02 03:30:47;;;;;;;15.95;14.30;;;6.90;99.90;;;;;;5074721;28;20027;-80
2023/12/02 03:33:12;;;;;;;16.38;14.57;;;6.80;99.90;;;;;;5074398;28;20106;-81
2023/12/02 03:35:38;;;;;;;16.65;14.90;;;6.80;99.90;;;;;;5074892;28;20040;-80
2023/12/02 03:38:04;;;;;;;16.42;14.82;;;6.70;99.90;;;;;;5075205;28;20032;-82
2023/12/02 03:40:30;;;;;;;16.33;14.63;;;6.70;99.90;;;;;;5074900;28;20414;-79
2023/12/02 03:42:55;;;;;;;17.73;16.00;;;6.70;99.90;;;;;;5074800;28;20039;-79
2023/12/02 03:45:21;;;;;;;17.95;15.40;;;6.60;99.90;;;;;;5074365;28;20085;-80
2023/12/02 03:47:47;;;;;;;17.48;15.68;;;6.60;99.90;;;;;;5074254;28;20028;-79
2023/12/02 03:50:13;;;;;;;16.92;15.05;;;6.90;99.90;;;;;;5074657;28;20032;-79
2023/12/02 03:52:39;;;;;;;17.80;15.52;;;6.90;99.90;;;;;;5074013;28;20141;-79
2023/12/02 03:55:05;;;;;;;18.05;16.17;;;7.10;99.90;;;;;;5073683;28;20047;-79
2023/12/02 03:57:31;;;;;;;17.33;15.65;;;7.20;99.90;;;;;;5074039;28;20040;-80
2023/12/02 03:59:57;;;;;;;16.85;15.13;;;7.10;99.90;;;;;;5074651;28;20021;-79
2023/12/02 04:02:23;;;;;;;17.98;15.85;;;7.20;99.90;;;;;;5074135;28;20487;-78
2023/12/02 04:04:49;;;;;;;17.58;15.35;;;7.30;99.90;;;;;;5073607;28;20035;-79
2023/12/02 04:07:14;;;;;;;19.13;17.05;;;7.30;99.90;;;;;;5074721;28;20031;-78
2023/12/02 04:09:40;;;;;;;18.20;16.05;;;7.40;99.90;;;;;;5073642;28;20020;-78
2023/12/02 04:12:06;;;;;;;18.17;16.27;;;7.30;99.90;;;;;;5073821;28;20043;-79
2023/12/02 04:14:32;;;;;;;18.10;16.20;;;7.20;99.90;;;;;;5074039;28;20473;-78
2023/12/02 04:16:57;;;;;;;18.00;16.10;;;7.00;99.90;;;;;;5073676;28;20051;-79
2023/12/02 04:19:23;;;;;;;18.20;16.30;;;6.80;99.90;;;;;;5073439;28;20033;-79
2023/12/02 04:21:48;;;;;;;18.08;16.17;;;6.70;99.90;;;;;;5073886;28;20111;-79
2023/12/02 04:24:14;;;;;;;17.63;15.82;;;6.60;99.90;;;;;;5073452;28;20072;-80
2023/12/02 04:26:41;;;;;;;18.65;16.63;;;6.50;99.90;;;;;;5073872;28;20024;-79
2023/12/02 04:29:06;;;;;;;18.63;16.73;;;6.40;99.90;;;;;;5074347;28;20028;-79
2023/12/02 04:31:32;;;;;;;18.50;16.48;;;6.30;99.90;;;;;;5074256;28;20024;-80
2023/12/02 04:33:58;;;;;;;18.35;16.55;;;6.20;99.90;;;;;;5074343;28;20122;-78
2023/12/02 04:36:24;;;;;;;18.20;16.40;;;6.20;99.90;;;;;;5073460;28;20012;-79
2023/12/02 04:38:50;;;;;;;18.52;16.67;;;6.00;99.90;;;;;;5073876;28;20514;-79
2023/12/02 04:41:16;;;;;;;19.17;16.70;;;6.00;99.90;;;;;;5072091;28;20028;-79
2023/12/02 04:43:41;;;;;;;18.65;16.60;;;6.00;99.90;;;;;;5073181;28;20130;-79
2023/12/02 04:46:07;;;;;;;18.42;16.48;;;6.00;99.90;;;;;;5073000;28;20028;-80
2023/12/02 04:48:34;;;;;;;18.98;17.08;;;6.00;99.90;;;;;;5073409;28;20059;-79
2023/12/02 04:50:59;;;;;;;18.45;16.55;;;5.90;99.90;;;;;;5072935;28;20025;-78
2023/12/02 04:53:25;;;;;;;19.52;17.08;;;5.90;99.90;;;;;;5072674;28;20074;-79
2023/12/02 04:55:53;;;;;;;19.42;17.30;;;5.80;99.90;;;;;;5071947;28;20028;-79
2023/12/02 04:58:20;;;;;;;18.60;16.67;;;5.70;99.90;;;;;;5072746;28;20043;-79
2023/12/02 05:00:46;;;;;;;18.10;16.23;;;5.80;99.90;;;;;;5072865;28;20547;-78
2023/12/02 05:03:16;;;;;;;21.42;17.77;;;5.70;99.90;;;;;;5073769;28;20036;-79
2023/12/02 05:05:43;;;;;;;19.75;17.75;;;5.60;99.90;;;;;;5073198;28;20027;-79
2023/12/02 05:08:08;;;;;;;22.17;18.88;;;5.60;99.90;;;;;;5073150;28;20491;-79
2023/12/02 05:10:35;;;;;;;20.60;18.17;;;5.50;99.90;;;;;;5073628;28;20020;-78
2023/12/02 05:13:00;;;;;;;22.67;18.67;;;5.40;99.90;;;;;;5072751;28;20021;-78
2023/12/02 05:15:26;;;;;;;20.20;18.02;;;5.40;99.90;;;;;;5072833;28;20380;-79
2023/12/02 05:17:52;;;;;;;21.35;17.85;;;5.50;99.90;;;;;;5072558;28;20429;-79
2023/12/02 05:20:19;;;;;;;20.60;18.40;;;5.50;99.90;;;;;;5072434;28;20028;-78
2023/12/02 05:22:44;;;;;;;22.73;18.80;;;5.50;99.90;;;;;;5072672;28;20040;-79
2023/12/02 05:25:10;;;;;;;22.60;19.08;;;5.50;99.90;;;;;;5072570;28;20074;-79
2023/12/02 05:27:36;;;;;;;22.10;19.30;;;5.40;99.90;;;;;;5072534;28;20043;-79
2023/12/02 05:30:03;;;;;;;23.13;19.92;;;5.30;99.90;;;;;;5072503;28;20028;-79
2023/12/02 05:32:28;;;;;;;21.77;19.23;;;5.20;99.90;;;;;;5072626;28;20028;-79
2023/12/02 05:34:54;;;;;;;21.75;18.48;;;5.20;99.90;;;;;;5073255;28;20027;-79
2023/12/02 05:37:20;;;;;;;21.30;19.00;;;5.10;99.90;;;;;;5072086;28;20036;-78
2023/12/02 05:39:45;;;;;;;22.55;20.02;;;4.90;99.90;;;;;;5073028;28;20029;-78
2023/12/02 05:42:11;;;;;;;23.38;20.40;;;4.90;99.90;;;;;;5072301;28;20024;-79
2023/12/02 05:44:38;;;;;;;22.35;19.52;;;5.00;99.90;;;;;;5072749;28;20131;-78
2023/12/02 05:47:04;;;;;;;23.20;20.17;;;5.00;99.90;;;;;;5072048;28;20119;-78
2023/12/02 05:49:30;;;;;;;23.85;21.30;;;5.00;99.90;;;;;;5071494;28;20028;-78
2023/12/02 05:51:55;;;;;;;23.35;19.85;;;5.00;99.90;;;;;;5071632;28;20120;-79
2023/12/02 05:54:21;;;;;;;22.30;19.90;;;5.10;99.90;;;;;;5072595;28;20475;-78
2023/12/02 05:56:47;;;;;;;22.38;19.90;;;5.10;99.90;;;;;;5071796;28;20081;-78
2023/12/02 05:59:12;;;;;;;23.63;21.00;;;5.20;99.90;;;;;;5072805;28;20040;-79
2023/12/02 06:01:38;;;;;;;23.85;21.35;;;5.30;99.90;;;;;;5072071;28;20020;-78
2023/12/02 06:04:04;;;;;;;23.98;21.38;;;5.30;99.90;;;;;;5072500;28;20103;-78
2023/12/02 06:06:29;;;;;;;26.20;22.10;;;5.40;99.90;;;;;;5072143;28;20097;-79
2023/12/02 06:08:55;;;;;;;23.30;20.67;;;5.20;99.90;;;;;;5071752;28;20028;-78
2023/12/02 06:11:21;;;;;;;28.80;22.08;;;5.20;99.90;;;;;;5071843;28;20467;-78
2023/12/02 06:13:46;;;;;;;26.83;22.00;;;5.20;99.90;;;;;;5071732;28;20024;-78
2023/12/02 06:16:13;;;;;;;27.27;22.00;;;5.00;99.90;;;;;;5072035;28;20032;-78
2023/12/02 06:18:38;;;;;;;32.63;24.90;;;5.00;99.90;;;;;;5072640;28;20128;-77
2023/12/02 06:21:04;;;;;;;27.60;22.73;;;5.00;99.90;;;;;;5071837;28;20100;-79
2023/12/02 06:23:30;;;;;;;27.48;22.60;;;4.90;99.90;;;;;;5072109;28;20028;-77
2023/12/02 06:25:55;;;;;;;26.77;22.60;;;4.60;99.90;;;;;;5070722;28;20406;-79
2023/12/02 06:28:21;;;;;;;25.17;22.50;;;4.60;99.90;;;;;;5071519;28;20471;-77
2023/12/02 06:30:47;;;;;;;28.60;24.38;;;4.50;99.90;;;;;;5072392;28;20096;-77
2023/12/02 06:33:12;;;;;;;34.90;27.20;;;4.40;99.90;;;;;;5071772;28;20513;-76
2023/12/02 06:35:38;;;;;;;42.38;33.13;;;4.30;99.90;;;;;;5072082;28;20033;-75
2023/12/02 06:38:04;;;;;;;53.05;37.60;;;4.20;99.90;;;;;;5071323;28;20071;-71
2023/12/02 06:40:29;;;;;;;56.58;39.60;;;4.20;99.90;;;;;;5070833;28;20056;-70
2023/12/02 06:42:55;;;;;;;60.40;41.63;;;4.20;99.90;;;;;;5071603;28;20031;-69
2023/12/02 06:45:20;;;;;;;87.05;55.90;;;4.10;99.90;;;;;;5070202;28;20024;-70
2023/12/02 06:47:46;;;;;;;54.28;39.53;;;4.00;99.90;;;;;;5070187;28;20024;-70
2023/12/02 06:50:12;;;;;;;52.95;39.13;;;4.00;99.90;;;;;;5070737;28;20051;-71
2023/12/02 06:52:38;;;;;;;48.17;36.75;;;3.90;99.90;;;;;;5070689;28;20060;-71
2023/12/02 06:55:04;;;;;;;48.10;35.72;;;3.90;99.90;;;;;;5070706;28;20033;-70
2023/12/02 06:57:29;;;;;;;41.90;33.40;;;3.90;99.90;;;;;;5070899;28;20028;-70
2023/12/02 06:59:55;;;;;;;47.95;35.88;;;3.90;99.90;;;;;;5070917;28;20033;-70
2023/12/02 07:02:21;;;;;;;45.65;34.97;;;4.00;99.90;;;;;;5070412;28;20475;-70
2023/12/02 07:04:46;;;;;;;47.17;34.53;;;4.00;99.90;;;;;;5070988;28;20033;-70
2023/12/02 07:07:12;;;;;;;37.80;28.85;;;4.00;99.90;;;;;;5070913;28;20025;-70
2023/12/02 07:09:38;;;;;;;37.10;28.35;;;3.90;99.90;;;;;;5071262;28;20056;-70
2023/12/02 07:12:04;;;;;;;32.80;26.40;;;3.90;99.90;;;;;;5070778;28;20095;-70
2023/12/02 07:14:30;;;;;;;31.23;25.33;;;3.90;99.90;;;;;;5070795;28;20024;-70
2023/12/02 07:16:55;;;;;;;33.55;24.33;;;3.90;99.90;;;;;;5070634;28;20024;-69
2023/12/02 07:19:21;;;;;;;28.52;23.58;;;3.90;99.90;;;;;;5070831;28;20025;-69
2023/12/02 07:21:46;;;;;;;26.42;22.58;;;3.80;99.90;;;;;;5071218;28;20044;-70
2023/12/02 07:24:13;;;;;;;27.85;22.95;;;3.80;99.90;;;;;;5070841;28;20027;-69
2023/12/02 07:26:39;;;;;;;28.17;23.30;;;3.80;99.90;;;;;;5070899;28;20033;-70
2023/12/02 07:29:05;;;;;;;32.90;25.95;;;3.80;99.90;;;;;;5070978;28;20495;-70
2023/12/02 07:31:30;;;;;;;34.60;28.42;;;3.70;99.90;;;;;;5070228;28;20029;-70
2023/12/02 07:33:56;;;;;;;35.35;29.02;;;3.70;99.90;;;;;;5070658;28;20028;-69
2023/12/02 07:36:22;;;;;;;36.85;28.45;;;3.70;99.90;;;;;;5070663;28;20032;-70
2023/12/02 07:38:47;;;;;;;32.88;27.80;;;3.70;99.90;;;;;;5072618;28;20036;-69
2023/12/02 07:41:13;;;;;;;33.05;27.20;;;3.70;99.90;;;;;;5074598;28;20025;-69
2023/12/02 07:43:39;;;;;;;28.17;24.15;;;3.70;99.90;;;;;;5074794;28;20028;-70
2023/12/02 07:46:05;;;;;;;31.30;25.02;;;3.80;99.90;;;;;;5074055;28;20118;-70
2023/12/02 07:48:30;;;;;;;33.35;25.10;;;3.80;99.90;;;;;;5074364;28;20534;-70
2023/12/02 07:50:56;;;;;;;33.97;23.45;;;3.80;99.90;;;;;;5074434;28;20108;-70
2023/12/02 07:53:22;;;;;;;32.40;24.60;;;3.90;99.90;;;;;;5074230;28;20115;-70
2023/12/02 07:55:47;;;;;;;30.75;24.60;;;4.00;99.90;;;;;;5074749;28;20107;-70
2023/12/02 07:58:13;;;;;;;33.50;25.83;;;4.00;99.90;;;;;;5074542;28;20065;-70
2023/12/02 08:00:39;;;;;;;36.88;27.77;;;4.10;99.90;;;;;;5074404;28;20531;-70
2023/12/02 08:03:04;;;;;;;36.83;26.92;;;4.20;99.90;;;;;;5073927;28;20443;-70
2023/12/02 08:05:30;;;;;;;32.72;26.00;;;4.20;99.90;;;;;;5074540;28;20082;-70
2023/12/02 08:07:56;;;;;;;35.35;27.42;;;4.40;99.90;;;;;;5074117;28;20382;-70
2023/12/02 08:10:21;;;;;;;32.90;25.60;;;4.60;99.90;;;;;;5074522;28;20509;-71
2023/12/02 08:12:47;;;;;;;31.17;24.98;;;4.80;99.90;;;;;;5074161;28;20406;-71
2023/12/02 08:15:14;;;;;;;33.25;26.88;;;4.80;99.90;;;;;;5074414;28;20036;-71
2023/12/02 08:17:40;;;;;;;33.83;27.35;;;5.00;99.90;;;;;;5073778;28;20032;-70
2023/12/02 08:20:06;;;;;;;29.67;25.23;;;5.00;99.90;;;;;;5073873;28;20073;-70
2023/12/02 08:22:33;;;;;;;29.30;25.33;;;5.00;99.90;;;;;;5074143;28;20436;-70
2023/12/02 08:24:59;;;;;;;31.05;25.05;;;5.20;99.90;;;;;;5074063;28;20095;-70
2023/12/02 08:27:24;;;;;;;31.55;25.95;;;5.30;99.90;;;;;;5073448;28;20108;-70
2023/12/02 08:29:50;;;;;;;30.08;25.27;;;5.40;99.90;;;;;;5073237;28;20479;-70
2023/12/02 08:32:16;;;;;;;30.65;25.15;;;5.40;99.90;;;;;;5073692;28;20031;-70
2023/12/02 08:34:42;;;;;;;30.65;25.75;;;5.30;99.90;;;;;;5072464;28;20028;-70
2023/12/02 08:37:07;;;;;;;32.35;26.58;;;5.20;99.90;;;;;;5073963;28;20092;-71
2023/12/02 08:39:34;;;;;;;32.60;27.65;;;5.10;99.90;;;;;;5073613;28;20085;-71
2023/12/02 08:42:00;;;;;;;32.70;27.08;;;5.00;99.90;;;;;;5073451;28;20028;-70
2023/12/02 08:44:25;;;;;;;35.13;27.88;;;4.90;99.90;;;;;;5072910;28;20035;-71
2023/12/02 08:46:54;;;;;;;35.70;27.17;;;4.90;99.90;;;;;;5073674;28;20035;-71
2023/12/02 08:49:20;;;;;;;33.08;26.80;;;4.90;99.90;;;;;;5072536;28;20670;-72
2023/12/02 08:51:46;;;;;;;31.73;27.33;;;5.00;99.90;;;;;;5072845;28;20072;-72
2023/12/02 08:54:13;;;;;;;34.17;27.48;;;5.00;99.90;;;;;;5073641;28;20033;-72
2023/12/02 08:56:38;;;;;;;31.90;26.40;;;5.10;99.90;;;;;;5072962;28;20031;-71
2023/12/02 08:59:04;;;;;;;33.83;26.73;;;5.20;99.90;;;;;;5072969;28;20032;-72
2023/12/02 09:01:31;;;;;;;29.92;24.70;;;5.20;99.90;;;;;;5073134;28;20021;-72
2023/12/02 09:03:56;;;;;;;33.60;26.25;;;5.20;99.90;;;;;;5072811;28;20037;-71
2023/12/02 09:06:22;;;;;;;37.20;28.20;;;5.30;99.90;;;;;;5073588;28;20055;-72
2023/12/02 09:08:48;;;;;;;39.22;29.88;;;5.30;99.90;;;;;;5072983;28;20024;-72
2023/12/02 09:11:14;;;;;;;40.33;32.35;;;5.30;99.90;;;;;;5072947;28;20099;-72
2023/12/02 09:13:39;;;;;;;42.78;34.55;;;5.30;99.90;;;;;;5072557;28;20086;-72
2023/12/02 09:16:08;;;;;;;43.13;35.08;;;5.30;99.90;;;;;;5072775;28;20070;-72
2023/12/02 09:18:35;;;;;;;50.47;37.88;;;5.40;99.90;;;;;;5072499;28;20119;-71
2023/12/02 09:21:02;;;;;;;44.05;35.28;;;5.40;99.90;;;;;;5072597;28;20024;-72
2023/12/02 09:23:29;;;;;;;41.40;34.00;;;5.40;99.90;;;;;;5072780;28;20040;-71
2023/12/02 09:26:01;;;;;;;40.60;33.25;;;5.50;99.90;;;;;;5072177;28;20403;-72
2023/12/02 09:28:29;;;;;;;40.53;33.22;;;5.60;99.90;;;;;;5072106;28;20059;-72
2023/12/02 09:30:58;;;;;;;44.05;33.00;;;5.70;99.90;;;;;;5072531;28;20021;-72
2023/12/02 09:33:23;;;;;;;59.40;34.30;;;5.70;99.90;;;;;;5072254;28;20024;-72
2023/12/02 09:35:58;;;;;;;47.05;31.40;;;5.80;99.90;;;;;;5072076;28;20417;-71
2023/12/02 09:38:24;;;;;;;39.92;31.17;;;5.80;99.90;;;;;;5072089;28;20036;-72
2023/12/02 09:40:49;;;;;;;37.40;32.22;;;5.80;99.90;;;;;;5072040;28;20398;-72
2023/12/02 09:43:24;;;;;;;33.55;29.77;;;5.90;99.90;;;;;;5071747;28;20032;-73
2023/12/02 09:46:04;;;;;;;32.63;27.58;;;5.90;99.90;;;;;;5071915;28;20032;-72
2023/12/02 09:48:37;;;;;;;28.40;25.25;;;6.00;99.90;;;;;;5072131;28;20036;-73
2023/12/02 09:51:21;;;;;;;31.80;24.83;;;6.00;99.90;;;;;;5071977;28;20077;-72
2023/12/02 09:53:57;;;;;;;29.70;23.38;;;6.10;99.90;;;;;;5072029;28;20036;-73
2023/12/02 09:56:30;;;;;;;30.20;24.38;;;6.20;99.90;;;;;;5071380;28;20112;-72
2023/12/02 09:59:50;;;;;;;30.33;25.08;;;6.20;99.90;;;;;;5071919;28;20032;-72
2023/12/02 10:02:59;;;;;;;28.48;24.65;;;6.20;99.90;;;;;;5028672;28;20041;-72
2023/12/02 10:05:25;;;;;;;31.55;25.38;;;6.20;99.90;;;;;;5029642;28;20110;-72
2023/12/02 10:08:18;;;;;;;30.00;25.67;;;6.20;99.90;;;;;;5029569;28;20052;-72
2023/12/02 10:11:19;;;;;;;30.50;25.92;;;6.20;99.90;;;;;;5029726;28;20223;-73
2023/12/02 10:13:54;;;;;;;28.85;23.83;;;6.20;99.90;;;;;;5007548;28;20500;-72
2023/12/02 10:16:23;;;;;;;27.95;24.08;;;6.20;99.90;;;;;;5029322;28;20033;-73
2023/12/02 10:18:53;;;;;;;30.02;23.92;;;6.40;99.90;;;;;;5029122;28;20073;-74
2023/12/02 10:21:20;;;;;;;29.65;24.00;;;6.50;99.90;;;;;;5029360;28;20111;-74
2023/12/02 10:24:25;;;;;;;27.75;24.77;;;6.60;99.90;;;;;;5029486;28;20125;-73
2023/12/02 10:27:06;;;;;;;28.55;25.52;;;6.80;99.90;;;;;;4970048;28;20035;-73
2023/12/02 10:29:35;;;;;;;27.48;23.58;;;7.00;99.90;;;;;;4970415;28;20035;-73
2023/12/02 10:32:22;;;;;;;28.17;24.20;;;7.00;99.90;;;;;;4970267;28;20034;-73
2023/12/02 10:35:11;;;;;;;27.40;24.50;;;7.00;99.90;;;;;;4970377;28;20066;-74
2023/12/02 10:37:40;;;;;;;27.23;22.92;;;7.10;99.90;;;;;;4993958;28;20515;-73
2023/12/02 10:40:10;;;;;;;29.30;22.20;;;7.20;99.90;;;;;;5028618;28;20029;-73
2023/12/02 10:42:57;;;;;;;25.58;21.92;;;7.20;99.90;;;;;;5029100;28;20037;-73
2023/12/02 10:45:25;;;;;;;29.60;23.20;;;7.30;99.90;;;;;;5028731;28;20057;-73
2023/12/02 10:47:52;;;;;;;27.10;22.65;;;7.10;99.90;;;;;;5028846;28;20053;-73
2023/12/02 10:50:18;;;;;;;25.85;23.08;;;7.00;99.90;;;;;;5047810;28;20567;-74
2023/12/02 10:53:04;;;;;;;25.30;22.17;;;6.90;99.90;;;;;;5048533;28;20045;-73
2023/12/02 10:55:31;;;;;;;24.75;21.60;;;6.90;99.90;;;;;;5048419;28;20039;-73
2023/12/02 10:57:59;;;;;;;24.30;21.90;;;6.80;99.90;;;;;;5048790;28;20033;-74
2023/12/02 11:00:29;;;;;;;24.23;21.27;;;6.80;99.90;;;;;;5036419;28;20459;-74
2023/12/02 11:02:55;;;;;;;23.50;20.30;;;6.70;99.90;;;;;;5050988;28;20108;-74
2023/12/02 11:05:22;;;;;;;22.25;20.05;;;6.60;99.90;;;;;;5051266;28;20457;-74
2023/12/02 11:07:58;;;;;;;23.13;20.63;;;6.60;99.90;;;;;;5051310;28;20395;-75
2023/12/02 11:10:35;;;;;;;22.98;20.48;;;6.70;99.90;;;;;;5050969;28;20028;-75
2023/12/02 11:13:12;;;;;;;24.13;21.70;;;6.70;99.90;;;;;;5052750;28;20499;-75
2023/12/02 11:16:03;;;;;;;23.63;21.05;;;6.80;99.90;;;;;;5054624;28;20040;-75
2023/12/02 11:18:38;;;;;;;22.98;20.35;;;6.80;99.90;;;;;;5054808;28;20059;-75
2023/12/02 11:21:08;;;;;;;24.55;21.30;;;6.80;99.90;;;;;;5054774;28;20463;-74
2023/12/02 11:23:50;;;;;;;24.08;21.48;;;6.80;99.90;;;;;;5054423;28;20078;-75
2023/12/02 11:26:16;;;;;;;24.05;21.45;;;6.80;99.90;;;;;;5054980;28;20096;-75
2023/12/02 11:29:19;;;;;;;22.20;19.95;;;6.90;99.90;;;;;;5054830;28;20119;-75
2023/12/02 11:31:56;;;;;;;24.40;21.88;;;7.00;99.90;;;;;;5054989;28;20021;-75
2023/12/02 11:34:36;;;;;;;22.92;20.65;;;7.00;99.90;;;;;;5054459;28;20510;-75
2023/12/02 11:37:12;;;;;;;21.92;19.63;;;7.00;99.90;;;;;;5054491;28;20121;-75
2023/12/02 11:39:49;;;;;;;22.00;19.75;;;6.90;99.90;;;;;;5054567;28;20059;-76
2023/12/02 11:42:18;;;;;;;24.20;21.60;;;7.00;99.90;;;;;;5054778;28;20399;-75
2023/12/02 11:44:59;;;;;;;22.80;20.50;;;7.10;99.90;;;;;;5054517;28;20060;-75
2023/12/02 11:47:49;;;;;;;21.33;19.13;;;7.30;99.90;;;;;;5055240;28;20033;-74
2023/12/02 11:50:39;;;;;;;20.90;18.80;;;7.40;99.90;;;;;;5074375;28;20071;-75
2023/12/02 11:53:23;;;;;;;20.40;18.23;;;7.50;99.90;;;;;;5074268;28;20128;-74
2023/12/02 11:56:04;;;;;;;19.92;17.90;;;7.60;99.90;;;;;;5074205;28;20082;-75
2023/12/02 11:58:53;;;;;;;18.85;16.95;;;7.60;99.90;;;;;;5074186;28;20064;-74
2023/12/02 12:01:54;;;;;;;19.80;17.00;;;7.60;99.90;;;;;;5074374;28;20053;-75
2023/12/02 12:04:44;;;;;;;20.15;18.05;;;7.60;99.90;;;;;;5074358;28;20035;-75
2023/12/02 12:07:47;;;;;;;18.35;16.45;;;7.60;99.90;;;;;;5073778;28;20100;-75
2023/12/02 12:10:36;;;;;;;18.27;16.35;;;7.60;99.90;;;;;;5060027;28;20041;-75
2023/12/02 12:13:03;;;;;;;17.98;15.80;;;7.50;99.90;;;;;;5073673;28;20578;-75
2023/12/02 12:15:30;;;;;;;19.05;16.88;;;7.40;99.90;;;;;;5073821;28;20032;-75
2023/12/02 12:17:56;;;;;;;15.70;14.20;;;7.60;99.90;;;;;;5073763;28;20060;-75
2023/12/02 12:20:24;;;;;;;16.23;14.63;;;7.50;99.90;;;;;;5074270;28;20485;-75
2023/12/02 12:22:50;;;;;;;14.73;13.23;;;7.60;99.90;;;;;;5073529;28;20025;-75
2023/12/02 12:25:15;;;;;;;15.85;13.98;;;7.70;99.90;;;;;;5073386;28;20111;-75
2023/12/02 12:27:41;;;;;;;15.55;13.95;;;7.90;99.90;;;;;;5074205;28;20032;-75
2023/12/02 12:30:08;;;;;;;15.32;13.73;;;8.00;99.90;;;;;;5073813;28;20093;-75
2023/12/02 12:32:34;;;;;;;14.68;13.27;;;8.30;99.90;;;;;;5073753;28;20029;-75
2023/12/02 12:35:08;;;;;;;14.45;13.05;;;8.30;99.90;;;;;;5073470;28;20028;-75
2023/12/02 12:37:35;;;;;;;;;;;8.30;99.90;;;;;;5073538;28;20556;-74
2023/12/02 12:40:01;;;;;;;13.60;12.30;;;8.40;99.90;;;;;;5073826;28;19905;-75
2023/12/02 12:42:26;;;;;;;14.25;12.95;;;8.30;99.90;;;;;;5073472;28;20024;-75
2023/12/02 12:44:52;;;;;;;15.13;13.73;;;8.40;99.90;;;;;;5073538;28;20039;-75
2023/12/02 12:47:18;;;;;;;15.20;13.70;;;8.50;99.90;;;;;;5073348;28;20055;-74